createdAt,value
2023-04-05T00:00:08.485Z,6.93
2023-04-05T00:03:03.060Z,3.38
2023-04-05T00:05:30.754Z,7.18
2023-04-05T00:08:00.568Z,7.18
2023-04-05T00:10:28.508Z,4.07
2023-04-05T00:12:56.322Z,5.75
2023-04-05T00:15:24.168Z,3.45
2023-04-05T00:17:51.468Z,7.60
2023-04-05T00:20:19.138Z,1.05
2023-04-05T00:22:46.660Z,10.40
2023-04-05T00:25:14.242Z,3.53
2023-04-05T00:27:43.864Z,5.97
2023-04-05T00:30:11.603Z,6.93
2023-04-05T00:32:38.956Z,5.80
2023-04-05T00:35:07.319Z,5.10
2023-04-05T00:37:34.628Z,11.55
2023-04-05T00:40:02.198Z,5.65
2023-04-05T00:42:29.515Z,10.07
2023-04-05T00:44:57.204Z,9.30
2023-04-05T00:47:24.655Z,9.05
2023-04-05T00:49:52.395Z,8.60
2023-04-05T00:52:23.314Z,8.20
2023-04-05T00:54:52.112Z,8.60
2023-04-05T00:57:20.029Z,9.18
2023-04-05T00:59:47.581Z,10.15
2023-04-05T01:02:29.649Z,7.03
2023-04-05T01:05:01.964Z,8.50
2023-04-05T01:07:32.024Z,5.60
2023-04-05T01:10:00.663Z,3.10
2023-04-05T01:12:32.596Z,6.53
2023-04-05T01:15:01.121Z,4.53
2023-04-05T01:17:29.939Z,3.83
2023-04-05T01:20:02.284Z,3.35
2023-04-05T01:22:48.378Z,2.15
2023-04-05T01:25:19.397Z,8.70
2023-04-05T01:27:49.478Z,6.60
2023-04-05T01:30:32.094Z,4.57
2023-04-05T01:33:02.684Z,3.17
2023-04-05T01:35:39.423Z,5.47
2023-04-05T01:38:08.466Z,3.35
2023-04-05T01:40:37.159Z,2.95
2023-04-05T01:43:13.156Z,5.32
2023-04-05T01:45:41.342Z,10.65
2023-04-05T01:48:08.667Z,2.72
2023-04-05T01:50:36.279Z,3.13
2023-04-05T01:53:03.627Z,8.38
2023-04-05T01:55:31.200Z,1.10
2023-04-05T01:57:58.649Z,0.20
2023-04-05T02:00:27.891Z,3.47
2023-04-05T02:02:55.369Z,1.20
2023-04-05T02:05:23.148Z,5.75
2023-04-05T02:07:50.601Z,11.38
2023-04-05T02:10:18.487Z,9.38
2023-04-05T02:12:46.169Z,2.58
2023-04-05T02:15:13.784Z,8.02
2023-04-05T02:17:45.612Z,2.17
2023-04-05T02:20:14.578Z,7.22
2023-04-05T02:22:45.270Z,2.15
2023-04-05T02:25:13.374Z,1.50
2023-04-05T02:27:41.331Z,3.20
2023-04-05T02:30:09.421Z,0.98
2023-04-05T02:32:36.990Z,3.85
2023-04-05T02:35:04.867Z,6.88
2023-04-05T02:37:32.156Z,1.88
2023-04-05T02:39:59.774Z,5.47
2023-04-05T02:42:27.064Z,5.15
2023-04-05T02:44:54.657Z,5.10
2023-04-05T02:47:22.009Z,2.78
2023-04-05T02:49:49.891Z,2.78
2023-04-05T02:52:17.214Z,2.03
2023-04-05T02:54:46.208Z,7.28
2023-04-05T02:57:14.091Z,2.38
2023-04-05T02:59:42.699Z,2.72
2023-04-05T03:02:10.901Z,1.73
2023-04-05T03:04:38.792Z,3.70
2023-04-05T03:07:06.119Z,2.13
2023-04-05T03:09:33.830Z,3.20
2023-04-05T03:12:02.406Z,7.03
2023-04-05T03:14:32.979Z,3.45
2023-04-05T03:17:01.183Z,3.92
2023-04-05T03:19:28.785Z,4.20
2023-04-05T03:21:56.141Z,4.93
2023-04-05T03:24:23.748Z,2.35
2023-04-05T03:26:51.198Z,2.13
2023-04-05T03:29:18.780Z,7.30
2023-04-05T03:31:46.429Z,5.45
2023-04-05T03:34:14.320Z,4.75
2023-04-05T03:36:41.907Z,2.15
2023-04-05T03:39:13.123Z,5.85
2023-04-05T03:41:41.016Z,1.67
2023-04-05T03:44:09.556Z,12.20
2023-04-05T03:46:38.120Z,8.25
2023-04-05T03:49:07.301Z,34.30
2023-04-05T03:51:34.680Z,9.68
2023-04-05T03:54:02.345Z,31.10
2023-04-05T03:56:29.651Z,319.33
2023-04-05T03:58:57.668Z,52.33
2023-04-05T04:01:25.093Z,297.45
2023-04-05T04:03:52.655Z,203.85
2023-04-05T04:06:20.007Z,246.25
2023-04-05T04:08:47.670Z,270.88
2023-04-05T04:11:14.995Z,165.20
2023-04-05T04:13:42.581Z,90.97
2023-04-05T04:16:09.887Z,3.70
2023-04-05T04:18:37.472Z,24.42
2023-04-05T04:21:08.070Z,3.70
2023-04-05T04:23:38.569Z,5.60
2023-04-05T04:26:06.012Z,1.85
2023-04-05T04:28:38.911Z,0.32
2023-04-05T04:31:09.141Z,10.77
2023-04-05T04:33:36.688Z,13.73
2023-04-05T04:36:07.017Z,13.55
2023-04-05T04:38:34.983Z,3.28
2023-04-05T04:41:06.859Z,17.58
2023-04-05T04:43:38.512Z,90.60
2023-04-05T04:46:11.089Z,136.20
2023-04-05T04:48:42.004Z,116.20
2023-04-05T04:51:09.379Z,13.02
2023-04-05T04:53:37.078Z,10.85
2023-04-05T04:56:07.881Z,16.00
2023-04-05T04:58:35.808Z,16.80
2023-04-05T05:01:08.860Z,2.50
2023-04-05T05:03:38.591Z,4.72
2023-04-05T05:06:06.684Z,10.15
2023-04-05T05:08:34.318Z,6.50
2023-04-05T05:11:01.888Z,19.02
2023-04-05T05:13:29.529Z,7.15
2023-04-05T05:15:58.000Z,1.35
2023-04-05T05:18:26.066Z,12.00
2023-04-05T05:20:53.553Z,9.80
2023-04-05T05:23:21.427Z,1.50
2023-04-05T05:25:48.878Z,8.73
2023-04-05T05:28:16.714Z,3.15
2023-04-05T05:30:44.969Z,5.30
2023-04-05T05:33:12.855Z,3.05
2023-04-05T05:35:40.884Z,2.65
2023-04-05T05:38:10.762Z,3.63
2023-04-05T05:40:40.130Z,6.25
2023-04-05T05:43:07.998Z,7.10
2023-04-05T05:45:35.530Z,1.92
2023-04-05T05:48:03.255Z,1.70
2023-04-05T05:50:33.462Z,3.30
2023-04-05T05:53:01.787Z,4.78
2023-04-05T05:55:29.282Z,6.18
2023-04-05T05:57:56.872Z,4.47
2023-04-05T06:00:24.301Z,2.28
2023-04-05T06:02:52.769Z,4.60
2023-04-05T06:05:20.288Z,2.33
2023-04-05T06:07:47.975Z,1.45
2023-04-05T06:10:15.439Z,8.70
2023-04-05T06:12:42.991Z,6.97
2023-04-05T06:15:10.605Z,9.88
2023-04-05T06:17:42.266Z,3.60
2023-04-05T06:20:12.805Z,0.60
2023-04-05T06:22:41.178Z,31.80
2023-04-05T06:25:09.556Z,172.43
2023-04-05T06:27:37.141Z,107.70
2023-04-05T06:30:04.594Z,6.93
2023-04-05T06:32:32.196Z,43.65
2023-04-05T06:34:59.541Z,108.93
2023-04-05T06:37:27.117Z,121.85
2023-04-05T06:39:54.392Z,21.17
2023-04-05T06:42:21.940Z,17.55
2023-04-05T06:44:49.248Z,53.00
2023-04-05T06:47:16.863Z,43.58
2023-04-05T06:49:44.219Z,5.30
2023-04-05T06:52:11.778Z,9.55
2023-04-05T06:54:39.615Z,9.00
2023-04-05T06:57:07.242Z,13.35
2023-04-05T06:59:34.654Z,12.07
2023-04-05T07:02:02.382Z,5.40
2023-04-05T07:04:33.164Z,3.78
2023-04-05T07:07:02.318Z,2.65
2023-04-05T07:09:30.789Z,2.03
2023-04-05T07:11:58.355Z,4.25
2023-04-05T07:14:25.859Z,3.95
2023-04-05T07:16:53.639Z,5.95
2023-04-05T07:19:20.904Z,1.50
2023-04-05T07:21:48.918Z,0.22
2023-04-05T07:24:16.303Z,10.05
2023-04-05T07:26:43.903Z,6.68
2023-04-05T07:29:11.982Z,5.93
2023-04-05T07:31:40.405Z,6.85
2023-04-05T07:34:07.733Z,4.65
2023-04-05T07:36:37.137Z,3.47
2023-04-05T07:39:05.351Z,4.80
2023-04-05T07:41:35.308Z,6.22
2023-04-05T07:44:02.662Z,4.05
2023-04-05T07:46:30.324Z,5.28
2023-04-05T07:48:58.278Z,1.27
2023-04-05T07:51:27.226Z,3.65
2023-04-05T07:53:54.548Z,8.93
2023-04-05T07:56:23.109Z,10.98
2023-04-05T07:58:51.694Z,4.70
2023-04-05T08:01:19.476Z,3.83
2023-04-05T08:03:46.832Z,5.75
2023-04-05T08:06:17.788Z,5.75
2023-04-05T08:08:45.962Z,7.00
2023-04-05T08:11:14.006Z,3.65
2023-04-05T08:13:41.868Z,3.30
2023-04-05T08:16:10.443Z,5.13
2023-04-05T08:18:38.331Z,3.78
2023-04-05T08:21:05.954Z,2.92
2023-04-05T08:23:33.325Z,7.90
2023-04-05T08:26:01.180Z,4.05
2023-04-05T08:28:28.508Z,3.13
2023-04-05T08:30:57.586Z,8.27
2023-04-05T08:33:26.543Z,3.58
2023-04-05T08:35:54.207Z,5.88
2023-04-05T08:38:21.636Z,3.35
2023-04-05T08:40:49.477Z,3.08
2023-04-05T08:43:35.876Z,8.43
2023-04-05T08:46:04.605Z,1.60
2023-04-05T08:48:35.000Z,3.42
2023-04-05T08:51:03.006Z,5.53
2023-04-05T08:53:30.678Z,5.45
2023-04-05T08:56:01.419Z,13.18
2023-04-05T08:58:29.161Z,5.78
2023-04-05T09:00:58.752Z,6.75
2023-04-05T09:03:32.300Z,6.18
2023-04-05T09:06:00.664Z,5.00
2023-04-05T09:08:27.986Z,2.25
2023-04-05T09:10:55.706Z,2.75
2023-04-05T09:13:22.988Z,6.97
2023-04-05T09:15:50.694Z,10.52
2023-04-05T09:18:26.127Z,10.48
2023-04-05T09:21:03.846Z,3.78
2023-04-05T09:23:31.156Z,4.88
2023-04-05T09:25:58.798Z,57.97
2023-04-05T09:28:41.502Z,47.45
2023-04-05T09:31:09.314Z,10.10
2023-04-05T09:33:39.606Z,7.25
2023-04-05T09:36:07.584Z,3.95
2023-04-05T09:38:44.398Z,5.18
2023-04-05T09:41:12.027Z,5.65
2023-04-05T09:43:40.036Z,8.57
2023-04-05T09:46:08.059Z,3.45
2023-04-05T09:48:48.629Z,26.10
2023-04-05T09:51:19.824Z,10.50
2023-04-05T09:54:08.137Z,3.78
2023-04-05T09:56:40.268Z,6.85
2023-04-05T09:59:10.608Z,2.80
2023-04-05T10:01:45.218Z,2.20
2023-04-05T10:04:12.683Z,8.30
2023-04-05T10:06:42.108Z,4.15
2023-04-05T10:09:10.872Z,6.03
2023-04-05T10:11:39.138Z,10.00
2023-04-05T10:14:08.034Z,11.20
2023-04-05T10:16:58.504Z,11.30
2023-04-05T10:19:38.797Z,5.47
2023-04-05T10:22:12.339Z,23.67
2023-04-05T10:27:18.195Z,6.53
2023-04-05T10:29:51.709Z,5.88
2023-04-05T10:32:24.188Z,9.90
2023-04-05T10:34:57.657Z,7.72
2023-04-05T10:37:36.208Z,4.47
2023-04-05T10:40:04.567Z,11.30
2023-04-05T10:42:43.529Z,4.07
2023-04-05T10:45:15.201Z,8.82
2023-04-05T10:47:49.543Z,5.18
2023-04-05T10:50:24.069Z,4.68
2023-04-05T10:52:53.508Z,8.02
2023-04-05T10:55:21.833Z,4.82
2023-04-05T10:57:50.757Z,6.13
2023-04-05T11:00:18.674Z,4.28
2023-04-05T11:02:46.504Z,5.47
2023-04-05T11:05:33.152Z,7.90
2023-04-05T11:08:03.379Z,11.65
2023-04-05T11:10:31.176Z,5.40
2023-04-05T11:12:58.843Z,6.85
2023-04-05T11:15:29.938Z,5.68
2023-04-05T11:18:07.935Z,5.63
2023-04-05T11:20:44.461Z,4.85
2023-04-05T11:23:13.095Z,6.03
2023-04-05T11:25:41.542Z,6.15
2023-04-05T11:28:09.348Z,9.70
2023-04-05T11:30:53.997Z,8.38
2023-04-05T11:33:40.393Z,6.03
2023-04-05T11:36:08.037Z,8.23
2023-04-05T11:38:36.116Z,7.10
2023-04-05T11:41:22.425Z,3.20
2023-04-05T11:43:52.247Z,2.88
2023-04-05T11:46:19.675Z,151.88
2023-04-05T11:48:51.058Z,4.45
2023-04-05T11:51:21.345Z,51.10
2023-04-05T11:53:49.065Z,8.32
2023-04-05T11:56:16.643Z,11.98
2023-04-05T11:58:44.275Z,8.85
2023-04-05T12:01:11.569Z,10.52
2023-04-05T12:03:39.486Z,10.38
2023-04-05T12:06:10.530Z,6.45
2023-04-05T12:08:41.818Z,355.95
2023-04-05T12:11:10.139Z,6.65
2023-04-05T12:13:38.309Z,7.75
2023-04-05T12:16:06.915Z,11.73
2023-04-05T12:18:35.418Z,9.27
2023-04-05T12:21:07.610Z,4.88
2023-04-05T12:23:37.271Z,3.78
2023-04-05T12:26:07.225Z,6.57
2023-04-05T12:28:53.895Z,13.10
2023-04-05T12:31:40.266Z,10.30
2023-04-05T12:34:08.255Z,5.10
2023-04-05T12:36:36.068Z,5.07
2023-04-05T12:39:07.652Z,7.00
2023-04-05T12:41:36.608Z,8.20
2023-04-05T12:44:12.459Z,7.25
2023-04-05T12:46:44.686Z,6.45
2023-04-05T12:49:16.514Z,9.57
2023-04-05T12:51:44.440Z,7.57
2023-04-05T12:54:15.630Z,6.93
2023-04-05T12:56:43.182Z,5.07
2023-04-05T12:59:10.914Z,6.93
2023-04-05T13:01:39.146Z,11.90
2023-04-05T13:04:15.527Z,7.20
2023-04-05T13:06:44.522Z,5.60
2023-04-05T13:09:12.099Z,9.18
2023-04-05T13:11:39.396Z,5.63
2023-04-05T13:14:06.961Z,6.28
2023-04-05T13:16:34.364Z,5.57
2023-04-05T13:19:02.104Z,5.05
2023-04-05T13:21:29.360Z,4.43
2023-04-05T13:23:56.914Z,5.32
2023-04-05T13:26:24.213Z,6.03
2023-04-05T13:28:51.807Z,9.43
2023-04-05T13:31:19.164Z,5.75
2023-04-05T13:33:46.794Z,11.07
2023-04-05T13:36:14.094Z,7.47
2023-04-05T13:38:41.831Z,3.72
2023-04-05T13:41:09.122Z,9.68
2023-04-05T13:43:36.967Z,5.30
2023-04-05T13:46:04.388Z,4.05
2023-04-05T13:48:31.949Z,7.78
2023-04-05T13:50:59.244Z,4.32
2023-04-05T13:53:28.634Z,12.35
2023-04-05T13:55:56.097Z,28.27
2023-04-05T13:58:23.724Z,15.63
2023-04-05T14:00:52.945Z,13.93
2023-04-05T14:03:20.751Z,10.18
2023-04-05T14:05:50.713Z,4.95
2023-04-05T14:08:19.729Z,6.97
2023-04-05T14:10:47.108Z,3.88
2023-04-05T14:13:17.530Z,3.40
2023-04-05T14:15:44.813Z,7.57
2023-04-05T14:18:12.476Z,9.32
2023-04-05T14:20:40.212Z,9.98
2023-04-05T14:23:08.164Z,7.47
2023-04-05T14:25:35.708Z,11.77
2023-04-05T14:28:03.384Z,10.57
2023-04-05T14:30:31.231Z,5.90
2023-04-05T14:32:59.019Z,3.88
2023-04-05T14:35:26.560Z,5.78
2023-04-05T14:37:54.404Z,5.28
2023-04-05T14:40:21.857Z,11.65
2023-04-05T14:42:50.501Z,3.80
2023-04-05T14:45:18.422Z,5.03
2023-04-05T14:47:47.317Z,8.05
2023-04-05T14:50:15.267Z,6.78
2023-04-05T14:52:42.854Z,20.45
2023-04-05T14:55:12.332Z,11.60
2023-04-05T14:57:41.446Z,24.70
2023-04-05T15:00:09.495Z,17.35
2023-04-05T15:02:40.889Z,39.10
2023-04-05T15:05:08.804Z,20.23
2023-04-05T15:07:36.541Z,15.13
2023-04-05T15:10:03.905Z,17.10
2023-04-05T15:12:32.764Z,20.10
2023-04-05T15:15:00.230Z,29.95
2023-04-05T15:17:27.559Z,19.70
2023-04-05T15:19:55.213Z,17.45
2023-04-05T15:22:23.576Z,31.05
2023-04-05T15:24:51.334Z,31.05
2023-04-05T15:27:18.635Z,24.60
2023-04-05T15:29:46.324Z,15.80
2023-04-05T15:32:13.704Z,12.85
2023-04-05T15:34:41.309Z,34.00
2023-04-05T15:37:08.653Z,13.60
2023-04-05T15:39:36.398Z,20.67
2023-04-05T15:42:03.772Z,19.88
2023-04-05T15:44:31.360Z,12.75
2023-04-05T15:46:58.681Z,18.52
2023-04-05T15:49:26.368Z,11.13
2023-04-05T15:51:53.692Z,13.43
2023-04-05T15:54:21.309Z,15.40
2023-04-05T15:56:48.649Z,13.30
2023-04-05T15:59:16.320Z,17.65
2023-04-05T16:01:43.811Z,19.75
2023-04-05T16:04:11.567Z,20.70
2023-04-05T16:06:38.977Z,16.70
2023-04-05T16:09:06.577Z,12.05
2023-04-05T16:11:33.922Z,25.40
2023-04-05T16:14:01.782Z,20.02
2023-04-05T16:16:38.745Z,12.80
2023-04-05T16:19:13.646Z,15.82
2023-04-05T16:21:42.027Z,19.73
2023-04-05T16:24:09.628Z,19.90
2023-04-05T16:26:37.083Z,11.13
2023-04-05T16:29:05.197Z,14.32
2023-04-05T16:31:33.083Z,16.52
2023-04-05T16:34:00.864Z,27.55
2023-04-05T16:36:28.586Z,13.57
2023-04-05T16:38:56.197Z,17.17
2023-04-05T16:41:23.654Z,15.07
2023-04-05T16:43:52.335Z,20.30
2023-04-05T16:46:20.023Z,14.38
2023-04-05T16:48:47.758Z,19.48
2023-04-05T16:51:15.928Z,16.90
2023-04-05T16:53:43.786Z,13.60
2023-04-05T16:56:11.328Z,11.45
2023-04-05T16:58:39.243Z,16.83
2023-04-05T17:01:06.593Z,17.42
2023-04-05T17:03:34.564Z,17.63
2023-04-05T17:06:03.231Z,29.20
2023-04-05T17:08:30.855Z,19.77
2023-04-05T17:10:58.199Z,14.25
2023-04-05T17:13:25.967Z,30.52
2023-04-05T17:15:53.549Z,21.90
2023-04-05T17:18:21.479Z,59.95
2023-04-05T17:20:48.998Z,76.28
2023-04-05T17:23:16.713Z,29.88
2023-04-05T17:25:44.033Z,15.82
2023-04-05T17:28:13.042Z,13.50
2023-04-05T17:30:40.561Z,25.67
2023-04-05T17:33:08.302Z,23.70
2023-04-05T17:35:36.596Z,21.00
2023-04-05T17:38:04.617Z,20.23
2023-04-05T17:40:32.281Z,15.70
2023-04-05T17:42:59.883Z,13.40
2023-04-05T17:45:27.731Z,13.35
2023-04-05T17:47:55.467Z,6.22
2023-04-05T17:50:24.822Z,7.43
2023-04-05T17:52:52.684Z,10.90
2023-04-05T17:55:20.108Z,11.35
2023-04-05T17:57:48.028Z,15.43
2023-04-05T18:00:15.763Z,12.52
2023-04-05T18:02:45.606Z,11.55
2023-04-05T18:05:13.365Z,13.77
2023-04-05T18:07:42.648Z,11.43
2023-04-05T18:10:10.285Z,14.73
2023-04-05T18:12:38.059Z,13.65
2023-04-05T18:15:05.809Z,12.52
2023-04-05T18:17:33.786Z,13.23
2023-04-05T18:20:01.303Z,11.13
2023-04-05T18:22:31.734Z,11.13
2023-04-05T18:24:59.138Z,16.77
2023-04-05T18:27:27.163Z,13.30
2023-04-05T18:29:54.651Z,18.80
2023-04-05T18:32:22.422Z,15.68
2023-04-05T18:34:50.169Z,16.70
2023-04-05T18:37:18.112Z,9.90
2023-04-05T18:39:45.629Z,24.45
2023-04-05T18:42:13.490Z,38.10
2023-04-05T18:44:41.258Z,53.78
2023-04-05T18:47:08.850Z,54.00
2023-04-05T18:49:37.062Z,46.55
2023-04-05T18:52:05.348Z,35.50
2023-04-05T18:54:32.852Z,39.30
2023-04-05T18:57:00.797Z,23.10
2023-04-05T18:59:29.345Z,26.67
2023-04-05T19:01:57.423Z,20.23
2023-04-05T19:04:24.786Z,44.60
2023-04-05T19:06:52.437Z,54.55
2023-04-05T19:09:20.143Z,102.22
2023-04-05T19:11:47.732Z,57.90
2023-04-05T19:14:16.168Z,33.58
2023-04-05T19:16:44.497Z,31.58
2023-04-05T19:19:12.025Z,28.10
2023-04-05T19:21:40.101Z,32.38
2023-04-05T19:24:09.729Z,36.72
2023-04-05T19:26:38.030Z,51.65
2023-04-05T19:29:06.262Z,65.57
2023-04-05T19:31:34.985Z,81.35
2023-04-05T19:34:02.660Z,61.72
2023-04-05T19:36:30.863Z,107.40
2023-04-05T19:38:58.422Z,98.18
2023-04-05T19:41:26.050Z,100.13
2023-04-05T19:43:53.584Z,217.80
2023-04-05T19:46:21.236Z,104.53
2023-04-05T19:48:48.828Z,93.97
2023-04-05T19:51:18.740Z,152.48
2023-04-05T19:53:49.666Z,182.02
2023-04-05T19:56:20.246Z,209.65
2023-04-05T19:58:48.043Z,329.85
2023-04-05T20:01:35.955Z,554.55
2023-04-05T20:04:10.854Z,597.47
2023-04-05T20:06:38.664Z,573.28
2023-04-05T20:09:07.823Z,342.40
2023-04-05T20:11:35.760Z,389.83
2023-04-05T20:14:03.940Z,594.35
2023-04-05T20:16:33.010Z,383.90
2023-04-05T20:19:04.759Z,255.02
2023-04-05T20:21:32.947Z,117.28
2023-04-05T20:24:01.256Z,95.03
2023-04-05T20:26:29.929Z,93.63
2023-04-05T20:29:02.036Z,281.48
2023-04-05T20:31:31.841Z,89.10
2023-04-05T20:34:00.212Z,45.58
2023-04-05T20:36:34.595Z,37.42
2023-04-05T20:39:03.427Z,60.35
2023-04-05T20:41:34.197Z,43.90
2023-04-05T20:44:01.556Z,70.05
2023-04-05T20:46:29.188Z,57.88
2023-04-05T20:48:57.840Z,45.78
2023-04-05T20:51:26.004Z,47.28
2023-04-05T20:53:53.632Z,32.80
2023-04-05T20:56:21.374Z,40.70
2023-04-05T20:58:48.752Z,28.33
2023-04-05T21:01:16.687Z,27.58
2023-04-05T21:03:44.371Z,30.08
2023-04-05T21:06:12.096Z,33.90
2023-04-05T21:08:41.245Z,29.20
2023-04-05T21:11:11.556Z,41.53
2023-04-05T21:13:39.253Z,28.17
2023-04-05T21:16:06.989Z,24.20
2023-04-05T21:18:34.509Z,21.42
2023-04-05T21:21:02.191Z,25.52
2023-04-05T21:23:30.777Z,17.40
2023-04-05T21:25:59.895Z,23.27
2023-04-05T21:28:27.663Z,22.70
2023-04-05T21:30:55.278Z,28.20
2023-04-05T21:33:22.790Z,29.08
2023-04-05T21:35:50.941Z,26.40
2023-04-05T21:38:18.870Z,25.02
2023-04-05T21:40:46.595Z,29.13
2023-04-05T21:43:13.918Z,31.38
2023-04-05T21:45:41.608Z,76.55
2023-04-05T21:48:08.985Z,60.65
2023-04-05T21:50:37.373Z,52.40
2023-04-05T21:53:05.385Z,37.72
2023-04-05T21:55:33.283Z,57.38
2023-04-05T21:58:00.852Z,60.33
2023-04-05T22:00:28.596Z,47.72
2023-04-05T22:02:56.140Z,63.78
2023-04-05T22:05:36.275Z,41.95
2023-04-05T22:08:05.581Z,46.45
2023-04-05T22:10:33.641Z,30.42
2023-04-05T22:13:01.017Z,36.20
2023-04-05T22:15:28.652Z,41.72
2023-04-05T22:17:55.976Z,113.32
2023-04-05T22:20:23.582Z,67.03
2023-04-05T22:22:51.884Z,76.85
2023-04-05T22:25:19.483Z,103.85
2023-04-05T22:27:46.838Z,56.90
2023-04-05T22:30:14.662Z,43.72
2023-04-05T22:32:42.179Z,45.47
2023-04-05T22:35:10.185Z,44.70
2023-04-05T22:37:38.181Z,30.90
2023-04-05T22:40:06.480Z,30.15
2023-04-05T22:42:33.788Z,34.70
2023-04-05T22:45:04.424Z,25.20
2023-04-05T22:47:31.890Z,28.38
2023-04-05T22:49:59.508Z,24.80
2023-04-05T22:52:26.874Z,25.08
2023-04-05T22:54:54.474Z,24.17
2023-04-05T22:57:21.882Z,21.67
2023-04-05T22:59:49.523Z,28.85
2023-04-05T23:02:16.861Z,24.02
2023-04-05T23:04:44.555Z,19.60
2023-04-05T23:07:11.883Z,25.13
2023-04-05T23:09:39.481Z,23.35
2023-04-05T23:12:06.992Z,31.33
2023-04-05T23:14:34.681Z,22.45
2023-04-05T23:17:02.693Z,26.40
2023-04-05T23:19:30.465Z,27.70
2023-04-05T23:21:58.090Z,22.13
2023-04-05T23:24:25.748Z,26.40
2023-04-05T23:26:53.112Z,22.83
2023-04-05T23:29:20.989Z,26.20
2023-04-05T23:31:48.428Z,27.48
2023-04-05T23:34:16.254Z,20.27
2023-04-05T23:36:43.628Z,25.15
2023-04-05T23:39:11.522Z,26.83
2023-04-05T23:41:38.878Z,24.75
2023-04-05T23:44:07.239Z,29.67
2023-04-05T23:46:34.804Z,21.25
2023-04-05T23:49:02.446Z,25.75
2023-04-05T23:51:29.799Z,23.17
2023-04-05T23:53:57.524Z,29.17
2023-04-05T23:56:24.856Z,28.65
2023-04-05T23:58:52.542Z,30.52
